Latest Coastal Weather Observations for Mardie

IDW60701

Issued at 11:52 am WST Wednesday 22 April 2015 (issued every 10 minutes, with the page automatically refreshed every 10 minutes)

About coastal observations | Map of coastal stations | Coastal observations for WA | Marine services | Other Formats
Station Details ID: 005008 Name: MARDIE Lat: -21.19 Lon: 115.98 Height: 11.0 m
Data from the previous 72 hours. | See also: Recent months at Mardie
Date/Time
WST
Temp

°C
Wind Pressure Rain
since 9am
mm
Weather Cloud Vis
km
Sea
Height
m
Swell
Dir
 
Speed
knots
Gust
knots
hPa Trend Height
m
Period
s
Dir
22/11:30am 20.1 ESE 11 15 1012.6 - 0.0 - - - - - - -
22/11:00am 20.0 ESE 15 21 1012.7 - 0.0 - - - - - - -
22/10:30am 19.6 ESE 13 17 1013.0 - 0.0 - - - - - - -
22/10:00am 19.5 ESE 13 17 1013.4 - 0.0 - - - - - - -
22/09:30am 19.1 ESE 13 17 1013.2 - 0.0 - - - - - - -
22/09:00am 18.6 ESE 12 15 1013.2 - 0.0 - - - - - - -
22/08:30am 18.2 ESE 16 21 1013.0 - 0.0 - - - - - - -
22/08:00am 17.9 ESE 14 19 1012.9 - 0.0 - - - - - - -
22/07:30am 17.5 ESE 15 21 1012.8 - 0.0 - - - - - - -
22/07:29am 17.6 ESE 15 21 1012.8 - 0.0 - - - - - - -
22/07:00am 17.4 SE 8 11 1012.7 - 0.0 - - - - - - -
22/06:30am 17.7 ESE 14 19 1012.4 - 0.0 - - - - - - -
22/06:00am 18.0 ESE 9 14 1012.3 - 0.0 - - - - - - -
22/05:30am 18.1 ESE 14 19 1011.8 - 0.0 - - - - - - -
22/05:00am 17.9 ESE 11 17 1011.7 - 0.0 - - - - - - -
22/04:30am 17.7 ESE 11 14 1011.8 - 0.0 - - - - - - -
22/04:00am 17.9 ESE 12 15 1011.8 - 0.0 - - - - - - -
22/03:30am 17.8 ESE 12 15 1011.9 - 0.0 - - - - - - -
22/03:00am 17.8 ESE 11 15 1012.0 - 0.0 - - - - - - -
22/02:30am 17.8 ESE 12 16 1012.1 - 0.0 - - - - - - -
22/02:00am 17.9 ESE 11 15 1012.3 - 0.0 - - - - - - -
22/01:30am 18.0 ESE 11 15 1012.4 - 0.0 - - - - - - -
22/01:00am 18.0 ESE 13 17 1012.5 - 0.0 - - - - - - -
22/12:30am 17.8 ESE 9 12 1012.7 - 0.0 - - - - - - -
22/12:00am 18.0 ESE 10 13 1012.6 - 0.0 - - - - - - -
 
Date/Time
WST
Temp

°C
Wind Pressure Rain
since 9am
mm
Weather Cloud Vis
km
Sea
Height
m
Swell
Dir
 
Speed
knots
Gust
knots
hPa Trend Height
m
Period
s
Dir
21/11:30pm 18.2 ESE 11 17 1012.6 - 0.0 - - - - - - -
21/11:00pm 18.4 ESE 10 13 1012.5 - 0.0 - - - - - - -
21/10:30pm 18.7 ESE 14 19 1013.0 - 0.0 - - - - - - -
21/10:00pm 18.9 ESE 13 19 1013.1 - 0.0 - - - - - - -
21/09:30pm 19.0 ESE 15 19 1013.3 - 0.0 - - - - - - -
21/09:00pm 19.2 SE 14 19 1013.4 - 0.0 - - - - - - -
21/08:30pm 19.5 ESE 15 22 1013.2 - 0.0 - - - - - - -
21/08:00pm 20.0 SE 14 17 1012.9 - 0.0 - - - - - - -
21/07:30pm 20.2 SE 15 19 1012.3 - 0.0 - - - - - - -
21/07:00pm 20.6 SE 13 17 1011.7 - 0.0 - - - - - - -
21/06:30pm 20.8 SE 13 18 1011.5 - 0.0 - - - - - - -
21/06:00pm 21.1 SE 13 19 1011.2 - 0.0 - - - - - - -
21/05:30pm 21.3 ESE 14 18 1011.0 - 0.0 - - - - - - -
21/05:00pm 21.6 ESE 13 17 1010.7 - 0.0 - - - - - - -
21/04:30pm 21.9 ESE 15 20 1010.4 - 0.0 - - - - - - -
21/04:00pm 22.0 ESE 16 21 1010.3 - 0.0 - - - - - - -
21/03:30pm 22.1 E 18 23 1010.3 - 0.0 - - - - - - -
21/03:00pm 22.4 ESE 17 24 1010.2 - 0.0 - - - - - - -
21/02:30pm 22.5 ESE 16 22 1010.4 - 0.0 - - - - - - -
21/02:00pm 22.6 ESE 16 21 1010.6 - 0.0 - - - - - - -
21/01:30pm 22.2 ESE 15 19 1010.9 - 0.0 - - - - - - -
21/01:00pm 21.9 ESE 13 19 1011.4 - 0.0 - - - - - - -
21/12:30pm 21.9 ESE 14 18 1011.8 - 0.0 - - - - - - -
21/12:00pm 21.3 ESE 13 17 1012.3 - 0.0 - - - - - - -
21/11:30am 21.3 ESE 13 17 1013.0 - 0.0 - - - - - - -
21/11:00am 21.1 ESE 13 16 1013.1 - 0.0 - - - - - - -
21/10:30am 21.2 ESE 13 18 1013.5 - 0.0 - - - - - - -
21/10:00am 21.1 ESE 14 21 1013.5 - 0.0 - - - - - - -
21/09:30am 21.0 ESE 14 19 1013.7 - 0.0 - - - - - - -
21/09:00am 21.4 ESE 13 19 1013.5 - 0.0 - - - - - - -
21/08:30am 20.4 ESE 13 18 1013.5 - 0.0 - - - - - - -
21/08:00am 20.0 ESE 14 19 1013.7 - 0.0 - - - - - - -
21/07:30am 19.8 ESE 13 18 1013.7 - 0.0 - - - - - - -
21/07:00am 19.6 ESE 10 15 1013.5 - 0.0 - - - - - - -
21/06:30am 19.7 ESE 12 15 1013.4 - 0.0 - - - - - - -
21/06:00am 19.8 ESE 10 14 1013.4 - 0.0 - - - - - - -
21/05:30am 19.9 ESE 14 20 1013.4 - 0.0 - - - - - - -
21/05:00am 20.1 ESE 13 19 1013.1 - 0.0 - - - - - - -
21/04:30am 20.2 E 13 19 1013.3 - 0.0 - - - - - - -
21/04:00am 20.4 E 13 20 1013.4 - 0.0 - - - - - - -
21/03:30am 20.5 ESE 13 17 1013.3 - 0.0 - - - - - - -
21/03:00am 20.5 ESE 12 14 1013.3 - 0.0 - - - - - - -
21/02:30am 20.5 ESE 13 17 1013.4 - 0.0 - - - - - - -
21/02:00am 20.4 ESE 12 19 1013.7 - 0.0 - - - - - - -
21/01:30am 20.5 ESE 13 18 1013.6 - 0.0 - - - - - - -
21/01:00am 21.0 E 10 15 1013.8 - 0.0 - - - - - - -
21/12:30am 21.0 ESE 10 13 1013.8 - 0.0 - - - - - - -
21/12:00am 21.1 ESE 13 17 1013.9 - 0.0 - - - - - - -
 
Date/Time
WST
Temp

°C
Wind Pressure Rain
since 9am
mm
Weather Cloud Vis
km
Sea
Height
m
Swell
Dir
 
Speed
knots
Gust
knots
hPa Trend Height
m
Period
s
Dir
20/11:30pm 21.1 ESE 14 21 1013.8 - 0.0 - - - - - - -
20/11:00pm 21.3 E 13 18 1013.9 - 0.0 - - - - - - -
20/10:30pm 21.3 ESE 13 18 1014.1 - 0.0 - - - - - - -
20/10:00pm 21.2 ESE 15 21 1013.9 - 0.0 - - - - - - -
20/09:30pm 21.2 ESE 16 22 1014.2 - 0.0 - - - - - - -
20/09:00pm 21.0 ESE 15 19 1014.5 - 0.0 - - - - - - -
20/08:30pm 22.0 ESE 18 23 1014.0 - 0.0 - - - - - - -
20/08:00pm 22.2 ESE 13 17 1013.8 - 0.0 - - - - - - -
20/07:30pm 21.7 ESE 11 14 1013.7 - 0.0 - - - - - - -
20/07:00pm 22.8 ESE 15 22 1013.7 - 0.0 - - - - - - -
20/06:30pm 23.1 E 14 19 1013.1 - 0.0 - - - - - - -
20/06:00pm 23.4 ESE 12 18 1012.9 - 0.0 - - - - - - -
20/05:30pm 23.5 E 17 24 1012.6 - 0.0 - - - - - - -
20/05:00pm 23.8 E 18 23 1012.7 - 0.0 - - - - - - -
20/04:30pm 24.3 E 18 25 1012.4 - 0.0 - - - - - - -
20/04:00pm 24.7 E 18 24 1011.7 - 0.0 - - - - - - -
20/03:30pm 24.6 E 18 24 1012.4 - 0.0 - - - - - - -
20/03:00pm 25.3 E 18 24 1012.1 - 0.0 - - - - - - -
20/02:30pm 24.9 E 20 26 1012.2 - 0.0 - - - - - - -
20/02:00pm 25.1 E 19 25 1012.3 - 0.0 - - - - - - -
20/01:30pm 24.9 E 22 27 1012.5 - 0.0 - - - - - - -
20/01:00pm 25.6 E 21 27 1012.8 - 0.0 - - - - - - -
20/12:30pm 24.7 E 23 31 1013.4 - 0.0 - - - - - - -
20/12:00pm 24.8 E 21 27 1014.1 - 0.0 - - - - - - -
20/11:30am 23.7 E 23 30 1014.6 - 0.0 - - - - - - -
20/11:00am 24.5 E 23 29 1015.0 - 0.0 - - - - - - -
20/10:30am 24.4 E 22 28 1015.3 - 0.0 - - - - - - -
20/10:00am 23.6 E 23 31 1015.4 - 0.0 - - - - - - -
20/09:30am 22.5 E 18 23 1015.5 - 0.0 - - - - - - -
20/09:00am 22.2 E 19 25 1015.4 - 3.6 - - - - - - -
20/08:30am 22.0 E 19 26 1015.1 - 3.6 - - - - - - -
20/08:00am 21.3 E 19 26 1015.0 - 3.6 - - - - - - -
20/07:30am 20.9 E 19 26 1015.0 - 3.6 - - - - - - -
20/07:00am 20.6 E 15 24 1015.0 - 3.6 - - - - - - -
20/06:30am 20.8 E 16 23 1014.7 - 3.6 - - - - - - -
20/06:00am 20.6 E 17 24 1014.1 - 3.6 - - - - - - -
20/05:30am 20.7 E 18 24 1014.0 - 3.6 - - - - - - -
20/05:00am 20.6 E 17 23 1014.2 - 3.6 - - - - - - -
20/04:30am 20.6 E 17 23 1014.2 - 3.6 - - - - - - -
20/04:00am 20.6 E 15 20 1014.6 - 3.6 - - - - - - -
20/03:30am 20.6 E 13 18 1014.8 - 3.6 - - - - - - -
20/03:00am 20.6 E 12 16 1015.1 - 3.6 - - - - - - -
20/02:30am 20.7 E 13 19 1015.6 - 3.6 - - - - - - -
20/02:00am 20.7 ENE 10 15 1015.7 - 3.6 - - - - - - -
20/01:30am 20.6 E 13 17 1015.5 - 3.6 - - - - - - -
20/01:00am 20.6 ESE 13 18 1015.6 - 3.6 - - - - - - -
20/12:30am 20.5 ESE 14 19 1015.7 - 3.6 - - - - - - -
20/12:00am 20.5 SE 9 13 1016.2 - 3.6 - - - - - - -
 
Date/Time
WST
Temp

°C
Wind Pressure Rain
since 9am
mm
Weather Cloud Vis
km
Sea
Height
m
Swell
Dir
 
Speed
knots
Gust
knots
hPa Trend Height
m
Period
s
Dir
19/11:30pm 20.6 SSE 8 11 1016.2 - 3.6 - - - - - - -
19/11:00pm 20.6 SSE 10 13 1016.1 - 3.6 - - - - - - -
19/10:30pm 20.8 SE 8 9 1016.2 - 3.6 - - - - - - -
19/10:00pm 21.1 SE 7 10 1015.8 - 3.6 - - - - - - -
19/09:30pm 21.3 E 12 15 1015.4 - 3.6 - - - - - - -
19/09:00pm 21.3 E 12 16 1015.7 - 3.6 Recent precip. - - - - - -
19/08:30pm 21.1 ESE 11 15 1015.9 - 3.6 - - - - - - -
19/08:00pm 20.9 ESE 9 12 1015.7 - 3.4 - - - - - - -
19/07:30pm 21.1 E 11 14 1015.4 - 3.2 - - - - - - -
19/07:00pm 21.5 E 13 19 1015.0 - 3.2 - - - - - - -
19/06:30pm 21.5 ESE 13 17 1014.8 - 3.2 - - - - - - -
19/06:00pm 21.7 E 11 14 1014.4 - 3.2 - - - - - - -
19/05:30pm 21.9 E 19 24 1014.1 - 3.2 - - - - - - -
19/05:00pm 22.4 E 16 22 1014.1 - 3.2 - - - - - - -
19/04:30pm 22.7 ENE 17 24 1014.0 - 3.2 - - - - - - -
19/04:00pm 22.8 E 15 21 1013.8 - 3.2 - - - - - - -
19/03:30pm 22.5 E 15 20 1013.8 - 3.2 - - - - - - -
19/03:00pm 22.1 E 15 21 1014.0 - 3.2 Recent precip. - - - - - -
19/02:30pm 21.2 E 14 18 1014.3 - 3.2 - - - - - - -
19/02:00pm 20.9 E 12 16 1014.5 - 3.0 - - - - - - -
19/01:30pm 20.7 E 13 17 1014.8 - 2.6 - - - - - - -
19/01:00pm 20.3 E 11 15 1015.4 - 2.4 - - - - - - -
19/12:30pm 20.2 E 11 16 1015.9 - 2.2 - - - - - - -
19/12:00pm 19.9 ENE 11 16 1016.5 - 1.6 Rain - - - - - -

Other Formats:

Comma delimited format used in spreadsheet applications
http://www.bom.gov.au/fwo/IDW60701/IDW60701.94306.axf

JavaScript Object Notation format (JSON) in row-major order
http://www.bom.gov.au/fwo/IDW60701/IDW60701.94306.json